createdAt,value
2019-06-20T00:01:36.520Z,24.20
2019-06-20T00:04:05.046Z,24.40
2019-06-20T00:06:33.543Z,24.20
2019-06-20T00:09:01.999Z,24.30
2019-06-20T00:11:32.312Z,24.30
2019-06-20T00:14:00.601Z,24.40
2019-06-20T00:16:28.996Z,24.40
2019-06-20T00:18:57.456Z,24.40
2019-06-20T00:21:25.927Z,24.30
2019-06-20T00:23:54.374Z,23.90
2019-06-20T00:26:22.886Z,23.90
2019-06-20T00:28:51.259Z,24.00
2019-06-20T00:31:19.717Z,24.10
2019-06-20T00:33:48.247Z,24.10
2019-06-20T00:36:16.634Z,24.10
2019-06-20T00:38:45.165Z,24.10
2019-06-20T00:41:13.745Z,24.10
2019-06-20T00:43:42.209Z,24.10
2019-06-20T00:46:10.752Z,24.10
2019-06-20T00:48:39.237Z,24.30
2019-06-20T00:51:07.522Z,24.10
2019-06-20T00:53:35.938Z,24.10
2019-06-20T00:56:05.206Z,24.20
2019-06-20T00:58:33.801Z,23.80
2019-06-20T01:01:02.388Z,23.70
2019-06-20T01:03:30.852Z,23.90
2019-06-20T01:05:59.257Z,23.90
2019-06-20T01:08:27.698Z,23.90
2019-06-20T01:10:56.120Z,23.90
2019-06-20T01:13:33.678Z,24.00
2019-06-20T01:15:55.761Z,24.00
2019-06-20T01:18:24.069Z,24.00
2019-06-20T01:20:52.477Z,23.80
2019-06-20T01:23:20.832Z,23.80
2019-06-20T01:25:49.402Z,23.90
2019-06-20T01:28:17.906Z,24.00
2019-06-20T01:30:46.342Z,24.00
2019-06-20T01:33:15.043Z,23.90
2019-06-20T01:35:43.390Z,23.90
2019-06-20T01:38:11.857Z,24.10
2019-06-20T01:40:40.190Z,24.20
2019-06-20T01:43:08.686Z,24.10
2019-06-20T01:45:37.190Z,24.00
2019-06-20T01:48:05.587Z,23.90
2019-06-20T01:50:34.159Z,24.10
2019-06-20T01:53:02.700Z,24.20
2019-06-20T01:55:30.983Z,24.00
2019-06-20T01:57:59.357Z,24.00
2019-06-20T02:00:45.845Z,23.90
2019-06-20T02:03:15.573Z,23.70
2019-06-20T02:05:44.146Z,23.80
2019-06-20T02:08:12.602Z,23.90
2019-06-20T02:10:41.142Z,24.00
2019-06-20T02:13:09.559Z,24.10
2019-06-20T02:15:37.895Z,24.00
2019-06-20T02:18:06.414Z,23.80
2019-06-20T02:20:37.150Z,23.80
2019-06-20T02:23:05.774Z,23.80
2019-06-20T02:25:35.082Z,23.70
2019-06-20T02:28:03.471Z,23.30
2019-06-20T02:30:32.058Z,23.20
2019-06-20T02:33:00.467Z,23.50
2019-06-20T02:35:28.977Z,23.50
2019-06-20T02:37:57.411Z,23.30
2019-06-20T02:40:26.092Z,23.40
2019-06-20T02:42:54.598Z,23.50
2019-06-20T02:45:23.322Z,23.30
2019-06-20T02:47:51.721Z,23.20
2019-06-20T02:50:20.306Z,23.10
2019-06-20T02:52:48.812Z,23.20
2019-06-20T02:55:17.626Z,23.20
2019-06-20T02:57:46.032Z,23.00
2019-06-20T03:00:14.772Z,23.00
2019-06-20T03:02:43.060Z,23.00
2019-06-20T03:05:11.537Z,23.20
2019-06-20T03:07:39.958Z,23.40
2019-06-20T03:10:08.926Z,23.20
2019-06-20T03:12:37.513Z,23.20
2019-06-20T03:15:06.576Z,23.40
2019-06-20T03:17:36.078Z,23.40
2019-06-20T03:20:04.887Z,23.50
2019-06-20T03:22:34.768Z,23.50
2019-06-20T03:25:03.082Z,23.30
2019-06-20T03:27:31.496Z,23.30
2019-06-20T03:30:00.955Z,23.30
2019-06-20T03:32:29.290Z,23.00
2019-06-20T03:34:57.703Z,22.90
2019-06-20T03:37:26.154Z,23.10
2019-06-20T03:39:54.432Z,23.20
2019-06-20T03:42:32.638Z,23.30
2019-06-20T03:45:02.672Z,23.40
2019-06-20T03:47:32.453Z,23.50
2019-06-20T03:50:00.911Z,23.40
2019-06-20T03:52:29.218Z,23.30
2019-06-20T03:54:57.674Z,23.40
2019-06-20T03:57:25.971Z,23.10
2019-06-20T03:59:54.372Z,23.10
2019-06-20T04:02:22.676Z,23.10
2019-06-20T04:04:51.186Z,23.00
2019-06-20T04:07:19.648Z,23.00
2019-06-20T04:09:48.210Z,22.90
2019-06-20T04:12:16.494Z,22.60
2019-06-20T04:14:44.806Z,22.70
2019-06-20T04:17:13.247Z,22.60
2019-06-20T04:19:41.544Z,22.80
2019-06-20T04:22:09.849Z,22.70
2019-06-20T04:24:38.231Z,22.90
2019-06-20T04:27:06.655Z,23.00
2019-06-20T04:29:36.003Z,22.90
2019-06-20T04:32:04.506Z,22.70
2019-06-20T04:34:33.103Z,22.70
2019-06-20T04:37:01.572Z,22.80
2019-06-20T04:39:29.930Z,22.70
2019-06-20T04:41:58.267Z,22.80
2019-06-20T04:44:26.644Z,22.90
2019-06-20T04:47:00.967Z,22.90
2019-06-20T04:49:29.481Z,22.90
2019-06-20T04:51:57.977Z,23.00
2019-06-20T04:54:26.363Z,23.10
2019-06-20T04:56:54.765Z,23.20
2019-06-20T04:59:23.161Z,23.00
2019-06-20T05:01:51.436Z,22.90
2019-06-20T05:04:19.861Z,23.10
2019-06-20T05:06:52.407Z,23.20
2019-06-20T05:09:20.825Z,23.20
2019-06-20T05:11:49.276Z,23.60
2019-06-20T05:14:17.902Z,23.50
2019-06-20T05:16:46.198Z,23.60
2019-06-20T05:19:14.497Z,23.50
2019-06-20T05:22:02.337Z,23.60
2019-06-20T05:24:30.778Z,23.30
2019-06-20T05:26:59.243Z,23.80
2019-06-20T05:29:31.311Z,23.80
2019-06-20T05:31:59.859Z,23.80
2019-06-20T05:34:28.317Z,24.00
2019-06-20T05:36:56.742Z,24.10
2019-06-20T05:39:27.852Z,24.00
2019-06-20T05:41:56.298Z,24.10
2019-06-20T05:44:24.775Z,24.20
2019-06-20T05:47:11.217Z,24.20
2019-06-20T05:49:23.515Z,24.10
2019-06-20T05:51:52.065Z,24.20
2019-06-20T05:54:21.389Z,24.30
2019-06-20T05:56:49.825Z,24.40
2019-06-20T05:59:18.272Z,24.40
2019-06-20T06:01:46.973Z,24.40
2019-06-20T06:04:15.532Z,24.30
2019-06-20T06:06:43.970Z,24.30
2019-06-20T06:09:12.402Z,24.30
2019-06-20T06:11:40.981Z,24.70
2019-06-20T06:14:09.500Z,24.80
2019-06-20T06:16:44.009Z,24.70
2019-06-20T06:19:11.161Z,24.90
2019-06-20T06:21:39.500Z,24.80
2019-06-20T06:24:07.942Z,24.80
2019-06-20T06:26:36.317Z,24.80
2019-06-20T06:29:04.914Z,25.00
2019-06-20T06:31:33.412Z,25.00
2019-06-20T06:34:01.833Z,25.00
2019-06-20T06:36:30.172Z,25.00
2019-06-20T06:38:58.567Z,25.20
2019-06-20T06:41:27.170Z,25.20
2019-06-20T06:43:56.143Z,25.20
2019-06-20T06:46:42.828Z,25.30
2019-06-20T06:48:59.804Z,25.30
2019-06-20T06:51:28.373Z,25.20
2019-06-20T06:53:56.845Z,25.30
2019-06-20T06:56:25.266Z,25.30
2019-06-20T06:58:53.570Z,25.50
2019-06-20T07:01:22.103Z,25.50
2019-06-20T07:03:50.440Z,25.50
2019-06-20T07:06:19.557Z,25.70
2019-06-20T07:08:47.952Z,25.30
2019-06-20T07:11:17.233Z,25.50
2019-06-20T07:13:46.479Z,25.70
2019-06-20T07:16:15.085Z,25.60
2019-06-20T07:18:43.446Z,25.80
2019-06-20T07:21:11.844Z,25.90
2019-06-20T07:23:40.217Z,25.90
2019-06-20T07:26:08.897Z,25.90
2019-06-20T07:28:37.512Z,25.90
2019-06-20T07:31:06.085Z,25.90
2019-06-20T07:33:35.613Z,26.00
2019-06-20T07:36:04.420Z,25.90
2019-06-20T07:38:32.975Z,26.10
2019-06-20T07:41:01.428Z,26.10
2019-06-20T07:43:29.927Z,26.30
2019-06-20T07:46:03.190Z,26.20
2019-06-20T07:48:31.577Z,26.00
2019-06-20T07:51:00.066Z,26.30
2019-06-20T07:53:28.414Z,26.30
2019-06-20T07:55:56.981Z,26.30
2019-06-20T07:58:25.327Z,26.50
2019-06-20T08:00:57.851Z,26.50
2019-06-20T08:03:31.751Z,26.50
2019-06-20T08:06:04.365Z,26.20
2019-06-20T08:08:34.676Z,26.40
2019-06-20T08:11:03.208Z,26.20
2019-06-20T08:13:31.600Z,26.50
2019-06-20T08:16:03.502Z,26.80
2019-06-20T08:18:30.375Z,26.50
2019-06-20T08:20:58.975Z,26.50
2019-06-20T08:23:27.773Z,26.60
2019-06-20T08:25:57.551Z,26.70
2019-06-20T08:28:26.360Z,27.00
2019-06-20T08:30:56.064Z,26.90
2019-06-20T08:33:24.923Z,26.90
2019-06-20T08:35:53.306Z,26.80
2019-06-20T08:38:21.769Z,27.10
2019-06-20T08:40:50.305Z,27.40
2019-06-20T08:43:21.129Z,27.50
2019-06-20T08:45:51.191Z,27.40
2019-06-20T08:48:19.672Z,27.50
2019-06-20T08:50:48.223Z,27.50
2019-06-20T08:53:16.806Z,27.60
2019-06-20T08:55:45.181Z,27.80
2019-06-20T08:58:13.776Z,27.70
2019-06-20T09:00:42.300Z,27.80
2019-06-20T09:03:10.781Z,27.50
2019-06-20T09:05:39.214Z,27.70
2019-06-20T09:08:11.227Z,27.90
2019-06-20T09:10:39.150Z,28.00
2019-06-20T09:13:12.023Z,28.10
2019-06-20T09:15:42.417Z,28.30
2019-06-20T09:18:13.271Z,28.30
2019-06-20T09:20:41.758Z,28.20
2019-06-20T09:23:10.289Z,28.00
2019-06-20T09:25:47.954Z,28.10
2019-06-20T09:28:16.484Z,28.30
2019-06-20T09:30:48.341Z,27.90
2019-06-20T09:33:17.114Z,28.00
2019-06-20T09:35:45.414Z,28.20
2019-06-20T09:38:13.837Z,28.70
2019-06-20T09:40:42.174Z,28.90
2019-06-20T09:43:10.656Z,29.00
2019-06-20T09:45:39.329Z,28.90
2019-06-20T09:48:07.572Z,28.10
2019-06-20T09:50:36.055Z,28.20
2019-06-20T09:53:04.617Z,28.30
2019-06-20T09:55:33.233Z,28.30
2019-06-20T09:58:01.677Z,28.30
2019-06-20T10:00:30.485Z,28.60
2019-06-20T10:02:58.806Z,28.50
2019-06-20T10:05:27.642Z,28.50
2019-06-20T10:07:56.765Z,28.30
2019-06-20T10:10:28.710Z,28.30
2019-06-20T10:12:57.533Z,28.40
2019-06-20T10:15:27.279Z,28.60
2019-06-20T10:17:55.941Z,29.00
2019-06-20T10:20:25.058Z,29.40
2019-06-20T10:22:59.370Z,29.20
2019-06-20T10:25:28.137Z,28.70
2019-06-20T10:27:57.937Z,28.70
2019-06-20T10:30:27.791Z,28.70
2019-06-20T10:32:57.545Z,28.80
2019-06-20T10:35:26.662Z,29.30
2019-06-20T10:37:56.925Z,28.90
2019-06-20T10:40:26.648Z,29.50
2019-06-20T10:42:58.142Z,29.60
2019-06-20T10:45:27.441Z,29.90
2019-06-20T10:47:56.117Z,30.10
2019-06-20T10:50:24.796Z,30.20
2019-06-20T10:52:53.358Z,30.20
2019-06-20T10:55:22.110Z,29.80
2019-06-20T10:57:52.101Z,29.20
2019-06-20T11:00:30.998Z,28.90
2019-06-20T11:03:01.569Z,28.70
2019-06-20T11:05:30.397Z,29.50
2019-06-20T11:07:59.027Z,30.30
2019-06-20T11:10:33.931Z,30.30
2019-06-20T11:13:02.482Z,30.20
2019-06-20T11:15:31.407Z,30.60
2019-06-20T11:18:01.048Z,31.00
2019-06-20T11:20:31.476Z,31.10
2019-06-20T11:22:59.964Z,31.30
2019-06-20T11:25:28.616Z,30.50
2019-06-20T11:27:57.059Z,30.70
2019-06-20T11:30:25.984Z,30.90
2019-06-20T11:32:54.456Z,30.40
2019-06-20T11:35:22.797Z,30.70
2019-06-20T11:37:51.305Z,30.70
2019-06-20T11:40:20.226Z,31.00
2019-06-20T11:42:54.969Z,30.90
2019-06-20T11:45:23.517Z,30.90
2019-06-20T11:47:51.876Z,31.50
2019-06-20T11:50:20.941Z,30.80
2019-06-20T11:52:49.377Z,29.90
2019-06-20T11:55:18.091Z,29.80
2019-06-20T11:57:49.964Z,30.00
2019-06-20T12:00:19.684Z,30.30
2019-06-20T12:02:48.356Z,30.90
2019-06-20T12:05:17.180Z,31.10
2019-06-20T12:07:47.445Z,30.60
2019-06-20T12:10:17.116Z,30.10
2019-06-20T12:12:46.912Z,29.70
2019-06-20T12:15:17.753Z,29.60
2019-06-20T12:17:47.222Z,29.60
2019-06-20T12:20:15.876Z,29.40
2019-06-20T12:22:45.084Z,29.30
2019-06-20T12:25:13.931Z,29.50
2019-06-20T12:27:43.565Z,30.30
2019-06-20T12:30:15.890Z,30.70
2019-06-20T12:32:44.735Z,31.00
2019-06-20T12:35:13.679Z,31.30
2019-06-20T12:37:42.716Z,31.00
2019-06-20T12:40:14.065Z,31.10
2019-06-20T12:42:43.221Z,31.50
2019-06-20T12:45:14.799Z,31.50
2019-06-20T12:47:43.828Z,30.90
2019-06-20T12:50:13.748Z,30.30
2019-06-20T12:52:42.647Z,30.20
2019-06-20T12:55:11.938Z,30.70
2019-06-20T12:57:40.392Z,31.50
2019-06-20T13:00:10.737Z,31.60
2019-06-20T13:02:40.483Z,31.50
2019-06-20T13:05:09.996Z,31.80
2019-06-20T13:07:39.230Z,31.30
2019-06-20T13:10:09.503Z,30.50
2019-06-20T13:12:38.126Z,30.00
2019-06-20T13:15:06.652Z,30.50
2019-06-20T13:17:35.227Z,30.80
2019-06-20T13:20:04.083Z,31.30
2019-06-20T13:22:32.694Z,30.90
2019-06-20T13:25:01.107Z,30.60
2019-06-20T13:27:35.563Z,30.40
2019-06-20T13:30:05.251Z,30.20
2019-06-20T13:32:33.598Z,30.10
2019-06-20T13:35:02.002Z,30.10
2019-06-20T13:37:30.433Z,30.10
2019-06-20T13:40:02.567Z,30.00
2019-06-20T13:42:36.396Z,30.10
2019-06-20T13:45:13.124Z,30.20
2019-06-20T13:47:40.274Z,30.80
2019-06-20T13:50:10.459Z,31.60
2019-06-20T13:52:41.926Z,31.70
2019-06-20T13:55:13.227Z,31.30
2019-06-20T13:57:43.017Z,31.80
2019-06-20T14:00:13.163Z,31.70
2019-06-20T14:02:43.305Z,32.10
2019-06-20T14:05:13.518Z,32.50
2019-06-20T14:07:47.025Z,31.40
2019-06-20T14:10:13.908Z,30.90
2019-06-20T14:12:43.084Z,30.60
2019-06-20T14:15:16.662Z,30.50
2019-06-20T14:17:47.035Z,30.30
2019-06-20T14:20:16.180Z,30.00
2019-06-20T14:22:45.276Z,29.70
2019-06-20T14:25:16.008Z,29.60
2019-06-20T14:27:46.309Z,29.70
2019-06-20T14:30:15.294Z,29.80
2019-06-20T14:32:44.213Z,29.70
2019-06-20T14:35:12.773Z,29.80
2019-06-20T14:37:43.410Z,29.70
2019-06-20T14:40:17.094Z,29.80
2019-06-20T14:42:50.263Z,29.70
2019-06-20T14:45:22.611Z,29.70
2019-06-20T14:48:08.514Z,29.30
2019-06-20T14:50:43.823Z,29.30
2019-06-20T14:53:12.803Z,29.30
2019-06-20T14:55:41.417Z,29.40
2019-06-20T14:58:09.787Z,29.40
2019-06-20T15:00:38.275Z,29.30
2019-06-20T15:03:15.679Z,29.20
2019-06-20T15:05:46.175Z,28.80
2019-06-20T15:08:17.655Z,29.50
2019-06-20T15:10:48.500Z,30.30
2019-06-20T15:13:21.426Z,31.10
2019-06-20T15:15:51.110Z,31.10
2019-06-20T15:18:20.191Z,30.10
2019-06-20T15:20:51.975Z,29.60
2019-06-20T15:23:21.098Z,29.20
2019-06-20T15:25:50.385Z,28.80
2019-06-20T15:28:20.341Z,28.40
2019-06-20T15:30:50.530Z,27.90
2019-06-20T15:33:19.476Z,26.70
2019-06-20T15:35:50.378Z,26.10
2019-06-20T15:38:19.090Z,25.90
2019-06-20T15:40:49.393Z,26.20
2019-06-20T15:43:17.678Z,26.80
2019-06-20T15:45:49.898Z,26.80
2019-06-20T15:48:18.336Z,26.80
2019-06-20T15:50:46.713Z,25.70
2019-06-20T15:53:16.622Z,25.50
2019-06-20T15:55:47.492Z,25.20
2019-06-20T15:58:18.561Z,25.30
2019-06-20T16:00:46.959Z,25.60
2019-06-20T16:03:15.434Z,26.30
2019-06-20T16:05:43.915Z,27.10
2019-06-20T16:08:12.599Z,27.60
2019-06-20T16:10:44.224Z,27.10
2019-06-20T16:13:13.098Z,26.80
2019-06-20T16:15:41.548Z,26.60
2019-06-20T16:18:10.010Z,26.90
2019-06-20T16:20:38.435Z,26.80
2019-06-20T16:23:06.933Z,26.80
2019-06-20T16:25:35.368Z,27.30
2019-06-20T16:28:03.985Z,26.90
2019-06-20T16:30:33.761Z,27.20
2019-06-20T16:33:02.597Z,27.50
2019-06-20T16:35:31.027Z,27.40
2019-06-20T16:37:59.352Z,27.30
2019-06-20T16:40:47.358Z,26.80
2019-06-20T16:43:27.984Z,26.80
2019-06-20T16:45:56.435Z,26.70
2019-06-20T16:48:27.369Z,26.60
2019-06-20T16:50:55.838Z,26.40
2019-06-20T16:53:24.466Z,26.30
2019-06-20T16:55:53.019Z,26.30
2019-06-20T16:58:21.402Z,26.80
2019-06-20T17:00:49.690Z,29.40
2019-06-20T17:03:18.204Z,30.10
2019-06-20T17:05:46.577Z,29.90
2019-06-20T17:08:16.739Z,30.30
2019-06-20T17:10:45.296Z,29.60
2019-06-20T17:13:13.644Z,29.10
2019-06-20T17:15:42.209Z,28.80
2019-06-20T17:18:11.554Z,28.50
2019-06-20T17:20:40.248Z,28.60
2019-06-20T17:23:08.657Z,28.70
2019-06-20T17:25:38.797Z,28.70
2019-06-20T17:28:10.361Z,29.00
2019-06-20T17:30:39.019Z,29.00
2019-06-20T17:33:07.374Z,29.10
2019-06-20T17:35:36.940Z,29.20
2019-06-20T17:38:05.491Z,29.00
2019-06-20T17:40:34.197Z,28.80
2019-06-20T17:43:06.297Z,28.20
2019-06-20T17:45:38.383Z,28.30
2019-06-20T17:48:08.609Z,28.20
2019-06-20T17:50:37.064Z,28.40
2019-06-20T17:53:09.176Z,28.00
2019-06-20T17:55:38.079Z,27.80
2019-06-20T17:58:06.733Z,27.80
2019-06-20T18:00:36.326Z,27.40
2019-06-20T18:03:04.721Z,27.20
2019-06-20T18:05:33.446Z,27.00
2019-06-20T18:08:14.094Z,26.90
2019-06-20T18:10:32.010Z,26.80
2019-06-20T18:13:00.519Z,26.60
2019-06-20T18:15:29.220Z,26.60
2019-06-20T18:18:10.294Z,26.60
2019-06-20T18:20:38.946Z,26.50
2019-06-20T18:23:07.500Z,26.40
2019-06-20T18:25:35.969Z,26.50
2019-06-20T18:28:04.527Z,26.40
2019-06-20T18:30:39.987Z,26.40
2019-06-20T18:33:08.512Z,26.30
2019-06-20T18:35:36.771Z,26.20
2019-06-20T18:38:06.178Z,26.20
2019-06-20T18:40:37.065Z,25.90
2019-06-20T18:43:05.520Z,25.90
2019-06-20T18:45:34.307Z,25.80
2019-06-20T18:48:02.849Z,25.90
2019-06-20T18:50:51.191Z,25.70
2019-06-20T18:53:22.084Z,25.80
2019-06-20T18:55:50.851Z,25.80
2019-06-20T18:58:23.049Z,25.80
2019-06-20T19:00:51.440Z,25.80
2019-06-20T19:03:21.557Z,25.80
2019-06-20T19:05:50.008Z,25.70
2019-06-20T19:08:18.330Z,25.70
2019-06-20T19:10:46.761Z,25.50
2019-06-20T19:13:15.475Z,25.50
2019-06-20T19:15:43.792Z,25.30
2019-06-20T19:18:13.387Z,25.20
2019-06-20T19:20:45.917Z,25.20
2019-06-20T19:23:14.541Z,25.20
2019-06-20T19:25:43.847Z,25.10
2019-06-20T19:28:12.201Z,25.10
2019-06-20T19:30:49.210Z,25.10
2019-06-20T19:33:17.764Z,25.10
2019-06-20T19:35:46.295Z,25.10
2019-06-20T19:38:14.946Z,25.20
2019-06-20T19:40:46.201Z,25.10
2019-06-20T19:43:14.656Z,25.20
2019-06-20T19:45:43.333Z,25.20
2019-06-20T19:48:15.748Z,25.10
2019-06-20T19:50:45.328Z,25.00
2019-06-20T19:53:13.828Z,24.90
2019-06-20T19:55:42.751Z,24.90
2019-06-20T19:58:32.184Z,24.90
2019-06-20T20:01:00.876Z,24.90
2019-06-20T20:03:32.292Z,24.90
2019-06-20T20:06:01.966Z,24.90
2019-06-20T20:08:30.584Z,24.70
2019-06-20T20:10:59.039Z,24.90
2019-06-20T20:13:27.546Z,24.80
2019-06-20T20:15:56.042Z,24.90
2019-06-20T20:18:24.691Z,24.80
2019-06-20T20:20:53.160Z,24.70
2019-06-20T20:23:21.594Z,24.50
2019-06-20T20:25:50.074Z,24.60
2019-06-20T20:28:19.663Z,24.60
2019-06-20T20:30:49.126Z,24.70
2019-06-20T20:33:18.352Z,24.80
2019-06-20T20:35:46.945Z,24.70
2019-06-20T20:38:15.433Z,24.70
2019-06-20T20:50:22.019Z,24.60
2019-06-20T20:52:51.479Z,24.70
2019-06-20T20:55:20.075Z,24.70
2019-06-20T20:57:48.728Z,24.70
2019-06-20T21:00:22.703Z,24.80
2019-06-20T21:02:51.273Z,24.60
2019-06-20T21:05:19.650Z,24.50
2019-06-20T21:07:48.239Z,24.40
2019-06-20T21:10:16.964Z,24.50
2019-06-20T21:12:45.471Z,24.40
2019-06-20T21:15:14.313Z,24.20
2019-06-20T21:17:42.865Z,24.40
2019-06-20T21:20:12.913Z,24.40
2019-06-20T21:22:41.479Z,24.40
2019-06-20T21:25:10.248Z,24.40
2019-06-20T21:27:38.739Z,24.50
2019-06-20T21:30:07.681Z,24.50
2019-06-20T21:32:36.135Z,24.50
2019-06-20T21:35:05.915Z,24.50
2019-06-20T21:37:34.466Z,24.40
2019-06-20T21:40:04.535Z,24.40
2019-06-20T21:42:33.082Z,24.30
2019-06-20T21:45:01.751Z,24.50
2019-06-20T21:47:30.262Z,24.40
2019-06-20T21:49:58.557Z,24.40
2019-06-20T21:52:26.919Z,24.40
2019-06-20T21:54:55.486Z,24.50
2019-06-20T21:57:23.885Z,24.60
2019-06-20T21:59:56.842Z,24.40
2019-06-20T22:02:26.026Z,24.30
2019-06-20T22:04:54.987Z,24.30
2019-06-20T22:07:23.860Z,24.40
2019-06-20T22:09:52.340Z,24.20
2019-06-20T22:12:20.960Z,24.30
2019-06-20T22:14:49.517Z,24.20
2019-06-20T22:17:17.794Z,24.20
2019-06-20T22:19:46.266Z,24.30
2019-06-20T22:22:14.669Z,24.30
2019-06-20T22:24:43.191Z,24.20
2019-06-20T22:27:11.606Z,24.20
2019-06-20T22:29:40.036Z,24.30
2019-06-20T22:32:08.375Z,24.20
2019-06-20T22:34:36.789Z,24.20
2019-06-20T22:37:05.318Z,24.20
2019-06-20T22:39:33.648Z,24.20
2019-06-20T22:42:02.099Z,24.20
2019-06-20T22:44:30.525Z,24.20
2019-06-20T22:46:58.998Z,24.20
2019-06-20T22:49:27.594Z,24.20
2019-06-20T22:51:56.033Z,24.20
2019-06-20T22:54:24.499Z,24.00
2019-06-20T22:56:55.147Z,24.20
2019-06-20T22:59:23.479Z,24.10
2019-06-20T23:01:52.049Z,24.10
2019-06-20T23:04:20.511Z,23.90
2019-06-20T23:06:56.225Z,24.20
2019-06-20T23:09:19.114Z,24.10
2019-06-20T23:11:47.671Z,24.00
2019-06-20T23:14:16.078Z,24.10
2019-06-20T23:16:44.536Z,24.00
2019-06-20T23:19:12.988Z,24.00
2019-06-20T23:21:41.462Z,23.90
2019-06-20T23:24:09.804Z,23.80
2019-06-20T23:26:38.294Z,23.90
2019-06-20T23:29:25.008Z,23.90
2019-06-20T23:31:54.362Z,23.90
2019-06-20T23:34:22.920Z,23.80
2019-06-20T23:36:51.543Z,23.90
2019-06-20T23:39:19.842Z,23.70
2019-06-20T23:41:48.123Z,23.70
2019-06-20T23:44:16.531Z,23.80
2019-06-20T23:46:45.167Z,23.80
2019-06-20T23:49:13.706Z,23.80
2019-06-20T23:51:50.974Z,23.80
2019-06-20T23:54:19.254Z,23.80
2019-06-20T23:56:47.711Z,23.80
2019-06-20T23:59:17.165Z,23.70
